AF498 / F-GZCG 7700 Squawk Report (25th of April, 2021)

Aircraft A332 Reg No. F-GZCG Age 18 years old
Model A330 Jet engines 2 First flight 19-10-02
Registered 20-12-02 Rollout 10-02 Delivered 19-03-04
Construction No. 498 Line No. N/A Series 203
ADSHEX 396446 Airline name Air France Owner N/A
Airfield based Paris-Charles de Gaulle~Val-d'Oise~F First tracked N/A

Flight history for F-GZCG

Route Flight No Date Playback
Charles De Gaulle (CDG) - Ndjili Intl (FIH) - Maya Maya (BZV) - Charles De Gaulle (CDG) AF722 2021-05-12 14:36:00
Charles De Gaulle (CDG) - Ndjili Intl (FIH) - Maya Maya (BZV) - Charles De Gaulle (CDG) AF722 2021-05-12 05:45:00
Princess Juliana Intl (SXM) - Charles De Gaulle (CDG) AF499 2021-05-10 05:23:00
Charles De Gaulle (CDG) - Princess Juliana Intl (SXM) AF498 2021-05-09 19:41:00
Murtala Muhammed (LOS) - Charles De Gaulle (CDG) AF149 2021-05-09 08:31:00
Charles De Gaulle (CDG) - Murtala Muhammed (LOS) AF104 2021-05-07 19:34:00
Gnassingbe Eyadema Intl (LFW) - Diori Hamani (NIM) - Charles De Gaulle (CDG) AF339 2021-05-07 14:42:00
Charles De Gaulle (CDG) - Diori Hamani (NIM) - Gnassingbe Eyadema Intl (LFW) AF306 2021-05-06 13:18:00
Gnassingbe Eyadema Intl (LFW) - Diori Hamani (NIM) - Charles De Gaulle (CDG) AF339 2021-05-06 08:41:00
Charles De Gaulle (CDG) - Diori Hamani (NIM) - Gnassingbe Eyadema Intl (LFW) AF306 2021-05-05 13:34:00
Princess Juliana Intl (SXM) - Charles De Gaulle (CDG) AF499 2021-05-04 05:14:00
Charles De Gaulle (CDG) - Princess Juliana Intl (SXM) AF498 2021-05-03 19:44:00
???? N/A 2021-05-02 16:17:00
Gnassingbe Eyadema Intl (LFW) - Charles De Gaulle (CDG) AF863 2021-05-01 06:29:00
Charles De Gaulle (CDG) - Gnassingbe Eyadema Intl (LFW) AF860 2021-05-01 03:06:00
Princess Juliana Intl (SXM) - Charles De Gaulle (CDG) AF499 2021-04-30 12:17:00
Charles De Gaulle (CDG) - Princess Juliana Intl (SXM) AF498 2021-04-29 19:40:00
Cadjehoun (COO) - Charles De Gaulle (CDG) AF805 2021-04-29 08:54:00
Charles De Gaulle (CDG) - Cadjehoun (COO) AF800 2021-04-29 02:12:00
Ben Gurion (TLV) - Charles De Gaulle (CDG) AF1621 2021-04-28 13:33:00
Time Lat Lon Altitude Heading Speed Vertical Rate
2021-04-25 17:28:30 GMT 18.043556 -63.112961 0 351 0 0
2021-04-25 17:28:25 GMT 18.043556 -63.112961 0 351 0 0
2021-04-25 17:28:20 GMT 18.043566 -63.112972 0 351 0 0
2021-04-25 17:28:18 GMT 18.043545 -63.112988 0 351 3 0
2021-04-25 17:28:09 GMT 18.043579 -63.112961 0 351 0 0
2021-04-25 17:28:05 GMT 18.043589 -63.112961 0 351 0 0
2021-04-25 17:28:01 GMT 18.043589 -63.112949 0 351 0 0
2021-04-25 17:27:59 GMT 18.043591 -63.112949 0 351 0 0
2021-04-25 17:27:56 GMT 18.043556 -63.112972 0 351 0 0
2021-04-25 17:27:55 GMT 18.043566 -63.112961 0 351 0 0
2021-04-25 17:27:53 GMT 18.043554 -63.112961 0 351 3 0
2021-04-25 17:27:43 GMT 18.043472 -63.112949 0 351 4 0
2021-04-25 17:27:42 GMT 18.043465 -63.112949 0 351 4 0
2021-04-25 17:27:41 GMT 18.043430 -63.112938 0 351 3 0
2021-04-25 17:27:38 GMT 18.043404 -63.112949 0 351 5 0
2021-04-25 17:27:32 GMT 18.043304 -63.112911 0 348 4 0
2021-04-25 17:27:31 GMT 18.043287 -63.112911 0 348 4 0
2021-04-25 17:27:23 GMT 18.043110 -63.112854 0 2 6 0
2021-04-25 17:27:12 GMT 18.042858 -63.112843 0 30 5 0
2021-04-25 17:27:09 GMT 18.042809 -63.112862 0 30 7 0
2021-04-25 17:27:05 GMT 18.042706 -63.112961 0 22 10 0
2021-04-25 17:26:08 GMT 18.041531 -63.112988 0 351 6 0
2021-04-25 17:26:02 GMT 18.041336 -63.112949 0 351 8 0
2021-04-25 17:25:52 GMT 18.040831 -63.112877 0 320 12 0
2021-04-25 17:25:43 GMT 18.040489 -63.112576 0 275 11 0
2021-04-25 17:25:31 GMT 18.040527 -63.111782 0 258 17 0
2021-04-25 17:25:30 GMT 18.040552 -63.111660 0 261 17 0
2021-04-25 17:25:27 GMT 18.040581 -63.111481 0 261 17 0
2021-04-25 17:25:02 GMT 18.040901 -63.109222 0 261 21 0
2021-04-25 17:25:00 GMT 18.040924 -63.109058 0 261 21 0
2021-04-25 17:24:27 GMT 18.041367 -63.106045 0 261 18 0
2021-04-25 17:24:26 GMT 18.041378 -63.105923 0 261 18 0
2021-04-25 17:24:16 GMT 18.041506 -63.105053 0 261 17 0
2021-04-25 17:24:10 GMT 18.041588 -63.104458 0 261 17 0
2021-04-25 17:24:09 GMT 18.041588 -63.104458 0 261 17 0
2021-04-25 17:24:07 GMT 18.041611 -63.104324 0 261 17 0
2021-04-25 17:23:56 GMT 18.041725 -63.103531 0 261 16 0
2021-04-25 17:23:55 GMT 18.041739 -63.103359 0 261 16 0
2021-04-25 17:23:28 GMT 18.042019 -63.101498 0 261 15 0
2021-04-25 17:23:27 GMT 18.042023 -63.101383 0 261 15 0
2021-04-25 17:23:04 GMT 18.042217 -63.099998 0 261 13 0
2021-04-25 17:22:51 GMT 18.042297 -63.099277 0 261 11 0
2021-04-25 17:21:33 GMT 18.042194 -63.100216 0 81 20 0
2021-04-25 17:21:23 GMT 18.042053 -63.101227 0 81 25 0
2021-04-25 17:21:20 GMT 18.041988 -63.101639 0 81 27 0
2021-04-25 17:21:07 GMT 18.041750 -63.103359 0 81 34 0
2021-04-25 17:20:53 GMT 18.041359 -63.106022 -150 81 45 0
2021-04-25 17:20:45 GMT 18.041084 -63.107975 -150 81 70 0
2021-04-25 17:20:39 GMT 18.040741 -63.110287 -150 81 112 -64
2021-04-25 17:20:36 GMT 18.040558 -63.111732 -125 81 112 -64
2021-04-25 17:20:33 GMT 18.040329 -63.113323 -100 82 123 -448
2021-04-25 17:20:32 GMT 18.040249 -63.113953 -100 82 123 -448
2021-04-25 17:20:28 GMT 18.039917 -63.116405 -75 82 123 -448
2021-04-25 17:20:27 GMT 18.039829 -63.117092 -50 81 124 -512
2021-04-25 17:20:25 GMT 18.039505 -63.119106 -25 80 125 -448
2021-04-25 17:20:22 GMT 18.039413 -63.119781 0 80 126 -576
2021-04-25 17:20:21 GMT 18.039318 -63.120331 0 81 126 -576
2021-04-25 17:20:19 GMT 18.039139 -63.121513 25 81 126 -640
2021-04-25 17:20:17 GMT 18.038956 -63.122623 50 81 126 -640
2021-04-25 17:20:16 GMT 18.038853 -63.123322 50 81 125 -576
2021-04-25 17:20:15 GMT 18.038807 -63.123959 75 81 125 -640
2021-04-25 17:20:14 GMT 18.038727 -63.124500 75 82 125 -640
2021-04-25 17:20:13 GMT 18.038544 -63.125755 100 82 125 -576
2021-04-25 17:20:11 GMT 18.038481 -63.126312 125 81 124 -384
2021-04-25 17:20:10 GMT 18.038361 -63.127007 125 81 124 -320
2021-04-25 17:20:09 GMT 18.038200 -63.128277 125 82 123 -320
2021-04-25 17:20:07 GMT 18.038109 -63.128864 125 82 124 -384
2021-04-25 17:20:06 GMT 18.038086 -63.129177 125 82 124 -512
2021-04-25 17:20:04 GMT 18.037874 -63.130581 150 81 124 -704
2021-04-25 17:20:03 GMT 18.037783 -63.131168 175 81 124 -768
2021-04-25 17:20:02 GMT 18.037642 -63.132298 200 80 122 -640
2021-04-25 17:20:00 GMT 18.037537 -63.133030 200 80 122 -640
2021-04-25 17:19:58 GMT 18.037354 -63.134090 225 81 121 -640
2021-04-25 17:19:57 GMT 18.037262 -63.134670 250 81 121 -640
2021-04-25 17:19:56 GMT 18.036987 -63.136501 250 80 121 -512
2021-04-25 17:19:54 GMT 18.036987 -63.136501 275 80 122 -448
2021-04-25 17:19:53 GMT 18.036804 -63.137608 275 81 124 -448
2021-04-25 17:19:51 GMT 18.036758 -63.138134 275 82 124 -576
2021-04-25 17:19:50 GMT 18.036617 -63.138966 300 82 125 -576
2021-04-25 17:19:48 GMT 18.036484 -63.140163 325 82 126 -704
2021-04-25 17:19:47 GMT 18.036432 -63.140732 350 82 127 -704
2021-04-25 17:19:46 GMT 18.036255 -63.141945 350 82 127 -768
2021-04-25 17:19:44 GMT 18.036200 -63.142597 375 82 127 -768
2021-04-25 17:19:43 GMT 18.036058 -63.143627 400 82 127 -768
2021-04-25 17:19:41 GMT 18.035967 -63.144363 400 82 126 -704
2021-04-25 17:19:40 GMT 18.035889 -63.145027 425 82 126 -704
2021-04-25 17:19:38 GMT 18.035751 -63.146088 450 82 125 -448
2021-04-25 17:19:36 GMT 18.035568 -63.147388 450 81 124 -128
2021-04-25 17:19:35 GMT 18.035501 -63.147942 450 81 123 -64
2021-04-25 17:19:34 GMT 18.035339 -63.149124 450 81 121 -128
2021-04-25 17:19:32 GMT 18.035248 -63.149704 450 81 121 -192
2021-04-25 17:19:30 GMT 18.035082 -63.150837 475 82 122 -384
2021-04-25 17:19:29 GMT 18.034988 -63.151424 475 81 121 -448
2021-04-25 17:19:27 GMT 18.034836 -63.152740 500 81 121 -320
2021-04-25 17:19:26 GMT 18.034710 -63.153484 500 81 121 -256
2021-04-25 17:19:25 GMT 18.034653 -63.154087 500 81 121 -128
2021-04-25 17:19:24 GMT 18.034477 -63.155201 500 81 122 0
2021-04-25 17:19:22 GMT 18.034378 -63.155823 500 81 122 0
2021-04-25 17:19:21 GMT 18.034197 -63.157360 500 81 123 -128
2021-04-25 17:19:19 GMT 18.034197 -63.157360 500 82 122 -256
2021-04-25 17:19:17 GMT 18.034012 -63.158665 500 81 121 -256
2021-04-25 17:19:15 GMT 18.033737 -63.160305 525 81 121 -256
2021-04-25 17:19:13 GMT 18.033646 -63.161171 525 81 121 -256
2021-04-25 17:19:12 GMT 18.033463 -63.162376 550 81 119 -256
2021-04-25 17:19:09 GMT 18.033325 -63.163292 550 81 119 -256
2021-04-25 17:19:07 GMT 18.033127 -63.164665 550 81 120 -384
2021-04-25 17:19:05 GMT 18.032894 -63.166237 575 81 120 -576
2021-04-25 17:19:03 GMT 18.032822 -63.166859 600 80 120 -704
2021-04-25 17:19:00 GMT 18.032568 -63.168491 625 80 120 -704
2021-04-25 17:18:59 GMT 18.032381 -63.169720 650 80 120 -704
2021-04-25 17:18:57 GMT 18.032272 -63.170231 650 81 121 -832
2021-04-25 17:18:56 GMT 18.032089 -63.171577 700 81 121 -832
2021-04-25 17:18:54 GMT 18.031998 -63.172157 700 81 120 -832
2021-04-25 17:18:52 GMT 18.031822 -63.173302 725 82 122 -704
2021-04-25 17:18:51 GMT 18.031723 -63.173943 750 81 122 -704
2021-04-25 17:18:50 GMT 18.031683 -63.174477 750 82 122 -512
2021-04-25 17:18:48 GMT 18.031494 -63.175674 775 82 123 -320
2021-04-25 17:18:47 GMT 18.031404 -63.176292 775 81 124 -192
2021-04-25 17:18:46 GMT 18.031172 -63.177910 775 81 125 0
2021-04-25 17:18:44 GMT 18.031172 -63.177910 775 81 128 -256
2021-04-25 17:18:43 GMT 18.031078 -63.178497 775 81 128 -256
2021-04-25 17:18:42 GMT 18.030991 -63.179241 800 81 129 -320
2021-04-25 17:18:40 GMT 18.030800 -63.180412 800 80 131 -448
2021-04-25 17:18:39 GMT 18.030706 -63.181049 800 79 133 -576
2021-04-25 17:18:37 GMT 18.030441 -63.182568 850 76 134 -768
2021-04-25 17:18:35 GMT 18.030121 -63.183914 875 75 135 -960
2021-04-25 17:18:34 GMT 18.029634 -63.185856 925 73 136 -1024
2021-04-25 17:18:32 GMT 18.029634 -63.185856 925 73 136 -1088
2021-04-25 17:18:31 GMT 18.029263 -63.186981 950 71 138 -1216
2021-04-25 17:18:29 GMT 18.029114 -63.187531 975 70 138 -1152
2021-04-25 17:18:28 GMT 18.028891 -63.188210 1,000 70 138 -1152
2021-04-25 17:18:26 GMT 18.028471 -63.189438 1,050 71 138 -1280
2021-04-25 17:18:24 GMT 18.028238 -63.190071 1,075 71 139 -1344
2021-04-25 17:18:23 GMT 18.028015 -63.190853 1,100 70 138 -1344
2021-04-25 17:18:21 GMT 18.027494 -63.192230 1,125 69 138 -1408
2021-04-25 17:18:20 GMT 18.027283 -63.192829 1,150 68 138 -1472
2021-04-25 17:18:18 GMT 18.026825 -63.194035 1,200 66 137 -1472
2021-04-25 17:18:17 GMT 18.026564 -63.194633 1,225 64 138 -1472
2021-04-25 17:18:16 GMT 18.026001 -63.195816 1,275 60 137 -1472
2021-04-25 17:18:14 GMT 18.025726 -63.196346 1,300 56 137 -1408
2021-04-25 17:18:13 GMT 18.025352 -63.196941 1,325 56 137 -1344
2021-04-25 17:18:12 GMT 18.024673 -63.197987 1,375 54 136 -1088
2021-04-25 17:18:10 GMT 18.024235 -63.198608 1,375 49 137 -960
2021-04-25 17:18:08 GMT 18.023443 -63.199638 1,425 47 138 -896
2021-04-25 17:18:07 GMT 18.022978 -63.200127 1,425 44 139 -896
2021-04-25 17:18:06 GMT 18.022430 -63.200733 1,450 41 140 -896
2021-04-25 17:18:05 GMT 18.021561 -63.201504 1,475 36 141 -1024
2021-04-25 17:18:03 GMT 18.021070 -63.201893 1,500 35 141 -1088
2021-04-25 17:18:02 GMT 18.020464 -63.202335 1,525 33 142 -1152
2021-04-25 17:18:00 GMT 18.019394 -63.203072 1,550 32 142 -1088
2021-04-25 17:17:59 GMT 18.018835 -63.203465 1,575 31 142 -1024
2021-04-25 17:17:58 GMT 18.017485 -63.204296 1,625 28 145 -768
2021-04-25 17:17:56 GMT 18.016832 -63.204639 1,625 27 146 -640
2021-04-25 17:17:54 GMT 18.015623 -63.205276 1,650 23 148 -576
2021-04-25 17:17:53 GMT 18.015289 -63.205406 1,650 21 150 -576
2021-04-25 17:17:52 GMT 18.013853 -63.205963 1,675 17 154 -704
2021-04-25 17:17:50 GMT 18.013092 -63.206226 1,675 16 154 -704
2021-04-25 17:17:49 GMT 18.012543 -63.206417 1,700 16 154 -832
2021-04-25 17:17:46 GMT 18.010208 -63.207092 1,750 13 157 -960
2021-04-25 17:17:44 GMT 18.008127 -63.207630 1,800 11 159 -832
2021-04-25 17:17:42 GMT 18.007338 -63.207779 1,825 11 160 -768
2021-04-25 17:17:41 GMT 18.006683 -63.207912 1,825 10 160 -768
2021-04-25 17:17:40 GMT 18.004824 -63.208317 1,850 11 163 -448
2021-04-25 17:17:37 GMT 18.004120 -63.208443 1,875 11 163 -320
2021-04-25 17:17:36 GMT 18.003426 -63.208565 1,875 11 167 -256
2021-04-25 17:17:34 GMT 18.001612 -63.208958 1,875 10 167 -192
2021-04-25 17:17:33 GMT 18.000824 -63.209068 1,875 9 171 -192
2021-04-25 17:17:32 GMT 17.999981 -63.209251 1,875 8 173 -256
2021-04-25 17:17:30 GMT 17.998304 -63.209496 1,875 5 176 -320
2021-04-25 17:17:29 GMT 17.997437 -63.209599 1,875 5 178 -320
2021-04-25 17:17:28 GMT 17.996584 -63.209690 1,875 4 180 -256
2021-04-25 17:17:27 GMT 17.995745 -63.209740 1,875 3 182 -128
2021-04-25 17:17:26 GMT 17.994507 -63.209789 1,875 1 185 0
2021-04-25 17:17:23 GMT 17.992676 -63.209839 1,875 357 189 -64
2021-04-25 17:17:22 GMT 17.991302 -63.209743 1,875 352 192 -320
2021-04-25 17:17:21 GMT 17.990387 -63.209599 1,900 350 194 -320
2021-04-25 17:17:19 GMT 17.988373 -63.209164 1,900 345 196 -384
2021-04-25 17:17:17 GMT 17.987411 -63.208908 1,925 343 198 -384
2021-04-25 17:17:16 GMT 17.986061 -63.208466 1,925 340 200 -384
2021-04-25 17:17:14 GMT 17.984852 -63.207928 1,925 336 203 -448
2021-04-25 17:17:12 GMT 17.982147 -63.206512 1,950 329 207 -576
2021-04-25 17:17:10 GMT 17.981359 -63.205963 1,975 328 208 -640
2021-04-25 17:17:09 GMT 17.980709 -63.205524 1,975 326 209 -640
2021-04-25 17:17:08 GMT 17.979172 -63.204395 2,000 322 211 -640
2021-04-25 17:17:06 GMT 17.978289 -63.203609 2,000 320 213 -640
2021-04-25 17:17:04 GMT 17.976938 -63.202385 2,025 316 215 -576
2021-04-25 17:17:03 GMT 17.976192 -63.201698 2,050 314 217 -640
2021-04-25 17:17:01 GMT 17.974823 -63.200153 2,075 308 220 -1088
2021-04-25 17:17:00 GMT 17.974146 -63.199245 2,075 308 220 -1152
2021-04-25 17:16:58 GMT 17.973038 -63.197697 2,125 306 221 -1472
2021-04-25 17:16:56 GMT 17.971771 -63.195763 2,175 303 221 -1600
2021-04-25 17:16:54 GMT 17.970520 -63.193649 2,250 300 221 -1472
2021-04-25 17:16:53 GMT 17.970016 -63.192734 2,275 299 221 -1472
2021-04-25 17:16:51 GMT 17.969070 -63.190807 2,325 295 223 -1344
2021-04-25 17:16:50 GMT 17.968653 -63.189827 2,350 295 223 -1280
2021-04-25 17:16:49 GMT 17.968233 -63.188847 2,350 293 223 -1216
2021-04-25 17:16:47 GMT 17.967581 -63.187130 2,375 291 224 -960
2021-04-25 17:16:45 GMT 17.966858 -63.185070 2,400 288 225 -640
2021-04-25 17:16:44 GMT 17.966463 -63.183697 2,425 287 226 -576
2021-04-25 17:16:43 GMT 17.965897 -63.181362 2,450 283 227 -576
2021-04-25 17:16:41 GMT 17.965672 -63.180363 2,450 280 229 -512
2021-04-25 17:16:39 GMT 17.965302 -63.178181 2,450 277 230 -256
2021-04-25 17:16:38 GMT 17.965164 -63.177074 2,450 275 231 -128
2021-04-25 17:16:37 GMT 17.965027 -63.174953 2,475 272 233 -64
2021-04-25 17:16:35 GMT 17.964981 -63.173843 2,475 271 234 -64
2021-04-25 17:16:34 GMT 17.964935 -63.172688 2,475 270 235 -64
2021-04-25 17:16:33 GMT 17.964973 -63.170456 2,475 266 235 0
2021-04-25 17:16:31 GMT 17.965021 -63.169277 2,475 265 237 0
2021-04-25 17:16:30 GMT 17.965210 -63.167004 2,475 261 238 -64
2021-04-25 17:16:28 GMT 17.965765 -63.163342 2,475 260 237 -192
2021-04-25 17:16:26 GMT 17.965765 -63.163342 2,475 259 238 -256
2021-04-25 17:16:24 GMT 17.966650 -63.158684 2,500 259 239 -128
2021-04-25 17:16:22 GMT 17.966650 -63.158684 2,500 259 238 0
2021-04-25 17:16:21 GMT 17.966995 -63.156979 2,500 259 238 0
2021-04-25 17:16:19 GMT 17.967255 -63.155643 2,475 259 240 -64
2021-04-25 17:16:18 GMT 17.967442 -63.154713 2,475 259 240 -64
2021-04-25 17:16:17 GMT 17.967911 -63.152306 2,475 259 242 -64
2021-04-25 17:16:15 GMT 17.968140 -63.151005 2,475 259 244 0
2021-04-25 17:16:14 GMT 17.968327 -63.150002 2,475 259 244 0
2021-04-25 17:16:12 GMT 17.968918 -63.147198 2,475 259 247 0
2021-04-25 17:16:11 GMT 17.969147 -63.145992 2,475 259 247 0
2021-04-25 17:16:10 GMT 17.969650 -63.143536 2,500 258 249 -64
2021-04-25 17:16:08 GMT 17.969925 -63.142330 2,500 257 250 -64
2021-04-25 17:16:07 GMT 17.970337 -63.140453 2,500 256 252 0
2021-04-25 17:16:05 GMT 17.970612 -63.139248 2,500 256 253 0
2021-04-25 17:16:03 GMT 17.971258 -63.136662 2,500 255 254 0
2021-04-25 17:16:02 GMT 17.971573 -63.135586 2,500 254 255 0
2021-04-25 17:16:01 GMT 17.972328 -63.132935 2,500 253 257 0
2021-04-25 17:15:59 GMT 17.972626 -63.131874 2,500 252 258 -64
2021-04-25 17:15:58 GMT 17.973358 -63.129608 2,500 251 259 -128
2021-04-25 17:15:56 GMT 17.973866 -63.128078 2,500 251 259 -128
2021-04-25 17:15:55 GMT 17.974331 -63.126755 2,500 251 260 -64
2021-04-25 17:15:54 GMT 17.975077 -63.124645 2,500 250 262 -128
2021-04-25 17:15:52 GMT 17.975601 -63.123199 2,500 249 263 -192
2021-04-25 17:15:50 GMT 17.976425 -63.121082 2,525 248 264 -256
2021-04-25 17:15:47 GMT 17.977869 -63.117241 2,525 249 267 -384
2021-04-25 17:15:46 GMT 17.978148 -63.116554 2,525 249 267 -448
2021-04-25 17:15:45 GMT 17.978897 -63.114624 2,550 249 268 -512
2021-04-25 17:15:34 GMT 17.983688 -63.102234 2,700 249 270 -1088
2021-04-25 17:15:24 GMT 17.988529 -63.089970 2,900 248 271 -1088
2021-04-25 17:15:14 GMT 17.993729 -63.078678 3,050 239 272 -1024
2021-04-25 17:15:04 GMT 18.001877 -63.067982 3,250 223 270 -1152
2021-04-25 17:14:54 GMT 18.011581 -63.059402 3,450 220 271 -1088
2021-04-25 17:14:43 GMT 18.022202 -63.050201 3,650 220 274 -1088
2021-04-25 17:14:34 GMT 18.031174 -63.042488 3,800 220 275 -1088
2021-04-25 17:14:24 GMT 18.041656 -63.033527 4,000 220 277 -1152
2021-04-25 17:14:13 GMT 18.052073 -63.024639 4,200 220 278 -1088
2021-04-25 17:14:03 GMT 18.061890 -63.016327 4,375 219 276 -1088
2021-04-25 17:13:53 GMT 18.071857 -63.007866 4,550 219 277 -1152
2021-04-25 17:13:41 GMT 18.084091 -62.997486 4,775 220 277 -1024
2021-04-25 17:13:30 GMT 18.094666 -62.988476 4,975 220 276 -1088
2021-04-25 17:13:21 GMT 18.103792 -62.980644 5,150 220 277 -1088
2021-04-25 17:12:53 GMT 18.133333 -62.950001 5,800 212 280
2021-04-25 17:12:32 GMT 18.158333 -62.933056 6,200 231 293
2021-04-25 17:11:53 GMT 18.183332 -62.900002 6,900 208 300
2021-04-25 17:11:31 GMT 18.221111 -62.878334 7,300 213 298
2021-04-25 17:10:52 GMT 18.250000 -62.833332 8,300 202 300
2021-04-25 17:10:30 GMT 18.289444 -62.828335 8,800 223 296
2021-04-25 17:09:52 GMT 18.333332 -62.799999 9,700 219 300
2021-04-25 17:09:29 GMT 18.360832 -62.786110 10,100 228 314
2021-04-25 17:08:52 GMT 18.383333 -62.733334 10,900 216 320
2021-04-25 17:08:28 GMT 18.423332 -62.721668 11,300 227 333
2021-04-25 17:08:10 GMT 18.433332 -62.700001 11,700 221 330
2021-04-25 17:07:26 GMT 18.496111 -62.646389 12,600 232 345
2021-04-25 17:07:10 GMT 18.500000 -62.633331 12,900 222 340
2021-04-25 17:06:25 GMT 18.563610 -62.576942 13,900 230 347
2021-04-25 17:06:10 GMT 18.566668 -62.549999 14,200 219 350
2021-04-25 17:05:24 GMT 18.636944 -62.501110 15,200 224 356
2021-04-25 17:05:10 GMT 18.650000 -62.466667 15,700 221 350
2021-04-25 17:04:23 GMT 18.702499 -62.433056 16,400 224 357
2021-04-25 17:03:22 GMT 18.776667 -62.355831 17,800 223 362
2021-04-25 17:02:21 GMT 18.850279 -62.279720 19,100 225 375
2021-04-25 17:01:20 GMT 18.933889 -62.192780 20,700 219 388
2021-04-25 17:00:19 GMT 19.006945 -62.128056 21,900 229 392
2021-04-25 17:00:10 GMT 19.000000 -62.116669 22,100 219 390
2021-04-25 16:59:17 GMT 19.089722 -62.055000 23,300 230 397
2021-04-25 16:59:10 GMT 19.083332 -62.033333 23,500 223 400
2021-04-25 16:58:16 GMT 19.172222 -61.968613 25,300 224 411
2021-04-25 16:58:10 GMT 19.183332 -61.933334 25,100 217 400
2021-04-25 16:57:10 GMT 19.250000 -61.866669 26,400 214 420
2021-04-25 16:56:14 GMT 19.338612 -61.796665 27,700 212 429
2021-04-25 16:55:13 GMT 19.436943 -61.725277 29,400 215 441
2021-04-25 16:54:12 GMT 19.549723 -61.651669 31,300 213 458
2021-04-25 16:53:11 GMT 19.658611 -61.580555 33,100 214 466
2021-04-25 16:53:02 GMT 19.650000 -61.566666 33,400 210 460
2021-04-25 16:52:01 GMT 19.766666 -61.500000 35,100 212 470
2021-04-25 16:51:01 GMT 19.883333 -61.416668 36,600 211 470
2021-04-25 16:49:57 GMT 20.000000 -61.349998 37,700 211 470
2021-04-25 16:48:55 GMT 20.116667 -61.266666 38,700 212 460
2021-04-25 16:47:55 GMT 20.216667 -61.200001 39,600 211 450
2021-04-25 16:46:55 GMT 20.333332 -61.133331 40,000 212 460
2021-04-25 16:45:54 GMT 20.433332 -61.049999 40,000 211 450
2021-04-25 16:44:54 GMT 20.549999 -60.983334 40,000 211 450
2021-04-25 16:43:53 GMT 20.650000 -60.916668 40,000 215 450
We lost coverage of the aircraft here for a total of 398 minutes
2021-04-25 10:05:25 GMT 47.948433 -10.256371 38,000 266 468 0
2021-04-25 10:05:16 GMT 47.949875 -10.227791 38,000 266 468 0
2021-04-25 10:05:04 GMT 47.951832 -10.189890 38,000 266 468 0
2021-04-25 10:05:02 GMT 47.952156 -10.183199 38,000 266 468 0
2021-04-25 10:04:35 GMT 47.956604 -10.096230 38,000 266 468 0
2021-04-25 10:04:27 GMT 47.957882 -10.070871 38,000 266 467 0
2021-04-25 10:04:18 GMT 47.959351 -10.041435 38,000 266 467 0
2021-04-25 10:04:10 GMT 47.960629 -10.015517 38,000 266 467 0
2021-04-25 10:03:58 GMT 47.962444 -9.979037 38,000 266 466 0
2021-04-25 10:03:49 GMT 47.963974 -9.947708 38,000 266 466 0
2021-04-25 10:03:42 GMT 47.965073 -9.925323 38,000 266 465 0
2021-04-25 10:03:32 GMT 47.966675 -9.893120 38,000 266 465 0
2021-04-25 10:03:20 GMT 47.968544 -9.855511 38,000 266 465 0
2021-04-25 10:03:11 GMT 47.969894 -9.827130 38,000 266 464 0
2021-04-25 10:03:01 GMT 47.971382 -9.795579 38,000 266 464 0
2021-04-25 10:02:36 GMT 47.975235 -9.714798 38,000 266 463 0
2021-04-25 10:02:31 GMT 47.975990 -9.699519 38,000 266 463 0
2021-04-25 10:02:22 GMT 47.977341 -9.670574 38,000 267 463 0
2021-04-25 10:01:13 GMT 47.987228 -9.454765 38,000 267 462 0
2021-04-25 10:01:09 GMT 47.987915 -9.438904 38,000 267 462 0
2021-04-25 10:00:59 GMT 47.989334 -9.406837 38,000 267 462 0
2021-04-25 10:00:49 GMT 47.990662 -9.375320 38,000 267 463 0
2021-04-25 10:00:36 GMT 47.992332 -9.338097 38,000 267 463 0
2021-04-25 10:00:31 GMT 47.993179 -9.319359 38,000 267 463 0
2021-04-25 10:00:20 GMT 47.994690 -9.284958 38,000 267 463 0
2021-04-25 10:00:08 GMT 47.996288 -9.247319 38,000 267 463 0
2021-04-25 10:00:01 GMT 47.997345 -9.223778 38,000 267 464 0
2021-04-25 09:59:51 GMT 47.998569 -9.191261 38,000 268 464 0
2021-04-25 09:59:41 GMT 47.998947 -9.159988 38,000 271 464 0
2021-04-25 09:59:31 GMT 47.998489 -9.127098 38,000 273 463 0
2021-04-25 09:59:21 GMT 47.997574 -9.095581 38,000 273 463 0
2021-04-25 09:59:11 GMT 47.996708 -9.064002 38,000 273 463 0
2021-04-25 09:59:00 GMT 47.995743 -9.030556 38,000 273 463 0
2021-04-25 09:58:51 GMT 47.994919 -9.000687 38,000 273 463 0
2021-04-25 09:58:41 GMT 47.993958 -8.968552 38,000 272 462 0
2021-04-25 09:58:30 GMT 47.993633 -8.933505 38,000 270 462 0
2021-04-25 09:58:20 GMT 47.994141 -8.902359 38,000 268 462 0
2021-04-25 09:57:51 GMT 47.997849 -8.808151 38,000 267 461 -64
2021-04-25 09:57:38 GMT 47.999641 -8.767019 38,000 268 461 0
2021-04-25 09:57:19 GMT 48.000366 -8.710167 38,000 270 461 0
2021-04-25 09:57:10 GMT 48.000458 -8.681328 38,000 270 461 0
2021-04-25 09:57:00 GMT 48.000523 -8.649269 38,000 270 461 0
2021-04-25 09:56:48 GMT 48.000572 -8.612507 38,000 270 461 0
2021-04-25 09:56:39 GMT 48.000641 -8.584923 38,000 270 461 0
2021-04-25 09:56:30 GMT 48.000687 -8.554161 38,000 270 461 0
2021-04-25 09:56:20 GMT 48.000755 -8.522151 38,000 270 460 0
2021-04-25 09:56:10 GMT 48.000805 -8.489826 38,000 270 460 64
2021-04-25 09:56:00 GMT 48.000824 -8.457893 38,000 271 460 0
2021-04-25 09:55:50 GMT 48.000755 -8.426232 38,000 271 460 0
2021-04-25 09:55:40 GMT 48.000778 -8.395203 38,000 270 459 0
2021-04-25 09:55:29 GMT 48.000824 -8.360115 38,000 270 459 0
2021-04-25 09:55:20 GMT 48.000851 -8.331088 38,000 270 459 0
2021-04-25 09:55:09 GMT 48.000851 -8.297847 38,000 270 460 -64
2021-04-25 09:54:59 GMT 48.000824 -8.265633 38,000 270 460 0
2021-04-25 09:54:50 GMT 48.000805 -8.236225 38,000 271 460 0
2021-04-25 09:54:40 GMT 48.000805 -8.203900 38,000 271 460 0
2021-04-25 09:54:30 GMT 48.000732 -8.173210 38,000 271 460 0
2021-04-25 09:54:20 GMT 48.000732 -8.140594 38,000 271 461 0
2021-04-25 09:54:10 GMT 48.000618 -8.108826 38,000 271 461 0
2021-04-25 09:54:00 GMT 48.000641 -8.077766 38,000 269 462 0
2021-04-25 09:53:49 GMT 48.001503 -8.042203 38,000 267 461 0
2021-04-25 09:53:39 GMT 48.002975 -8.011780 38,000 265 462 0
2021-04-25 09:53:30 GMT 48.005039 -7.982342 38,000 263 461 0
2021-04-25 09:53:20 GMT 48.008064 -7.949946 38,000 261 462 0
2021-04-25 09:53:15 GMT 48.009415 -7.937692 38,000 260 461 0
2021-04-25 09:53:10 GMT 48.011650 -7.919945 38,000 259 461 0
2021-04-25 09:52:59 GMT 48.016434 -7.885712 38,000 259 462 0
2021-04-25 09:52:49 GMT 48.020866 -7.854661 38,000 259 461 0
2021-04-25 09:52:40 GMT 48.025085 -7.824738 38,000 259 461 0
2021-04-25 09:52:30 GMT 48.029339 -7.794589 38,000 259 461 0
2021-04-25 09:52:19 GMT 48.033829 -7.762802 38,000 259 462 0
2021-04-25 09:52:09 GMT 48.038185 -7.732333 38,000 259 462 0
2021-04-25 09:51:59 GMT 48.042709 -7.699974 38,000 259 461 0
2021-04-25 09:51:49 GMT 48.047077 -7.668880 38,000 259 461 0
2021-04-25 09:51:39 GMT 48.051407 -7.637470 38,000 259 460 0
2021-04-25 09:51:28 GMT 48.056107 -7.603877 38,000 259 460 0
2021-04-25 09:51:18 GMT 48.060333 -7.573494 38,000 259 459 0
2021-04-25 09:51:08 GMT 48.064442 -7.544016 38,000 259 459 0
2021-04-25 09:50:59 GMT 48.072914 -7.482605 38,000 259 459 0
2021-04-25 09:50:49 GMT 48.072914 -7.482605 38,000 259 459 0
2021-04-25 09:50:39 GMT 48.077271 -7.450996 38,000 259 458 0
2021-04-25 09:50:29 GMT 48.081478 -7.420701 38,000 259 458 0
2021-04-25 09:50:19 GMT 48.085762 -7.389432 38,000 259 458 0
2021-04-25 09:50:08 GMT 48.090363 -7.356033 38,000 259 457 0
2021-04-25 09:49:59 GMT 48.094299 -7.327606 38,000 259 457 0
2021-04-25 09:49:49 GMT 48.098694 -7.295471 38,000 259 457 0
2021-04-25 09:49:39 GMT 48.102894 -7.264569 38,000 259 457 0
2021-04-25 09:49:29 GMT 48.107208 -7.233055 38,000 259 457 0
2021-04-25 09:49:19 GMT 48.111374 -7.202499 38,000 259 457 0
2021-04-25 09:49:09 GMT 48.115356 -7.172836 38,000 259 456 0
2021-04-25 09:48:59 GMT 48.119652 -7.140972 38,000 259 456 0
2021-04-25 09:48:49 GMT 48.123917 -7.109459 38,000 259 456 0
2021-04-25 09:48:39 GMT 48.128078 -7.078576 38,000 259 456 0
2021-04-25 09:48:29 GMT 48.132294 -7.047043 38,000 259 456 0
2021-04-25 09:48:19 GMT 48.136414 -7.016487 38,000 259 456 0
2021-04-25 09:48:08 GMT 48.140598 -6.985333 38,000 259 455 0
2021-04-25 09:47:58 GMT 48.144604 -6.955402 38,000 259 455 0
2021-04-25 09:47:48 GMT 48.148773 -6.923927 38,000 259 455 0
2021-04-25 09:47:37 GMT 48.152985 -6.892160 38,000 259 454 0
2021-04-25 09:47:35 GMT 48.154285 -6.882653 38,000 259 454 0
2021-04-25 09:47:27 GMT 48.157219 -6.860469 38,000 259 454 0
2021-04-25 09:47:25 GMT 48.158432 -6.851212 38,000 259 454 0
2021-04-25 09:47:18 GMT 48.160992 -6.831834 38,000 259 454 0
2021-04-25 09:47:16 GMT 48.162048 -6.823848 38,000 259 454 0
2021-04-25 09:47:07 GMT 48.165272 -6.799525 38,000 259 454 0
2021-04-25 09:47:04 GMT 48.166809 -6.787790 38,000 259 454 0
2021-04-25 09:46:58 GMT 48.169182 -6.769674 38,000 259 454 0
2021-04-25 09:46:55 GMT 48.170471 -6.759831 38,000 259 454 0
2021-04-25 09:46:48 GMT 48.173233 -6.738884 38,000 259 454 0
2021-04-25 09:46:38 GMT 48.177376 -6.707442 38,000 259 454 0
2021-04-25 09:46:30 GMT 48.180542 -6.683068 38,000 259 454 0
2021-04-25 09:46:26 GMT 48.182449 -6.668629 38,000 259 454 0
2021-04-25 09:46:18 GMT 48.185524 -6.645211 38,000 259 454 0
2021-04-25 09:46:15 GMT 48.186584 -6.637151 38,000 259 454 0
2021-04-25 09:46:08 GMT 48.189468 -6.614967 38,000 259 455 0
2021-04-25 09:46:05 GMT 48.190830 -6.604518 38,000 259 455 0
2021-04-25 09:45:58 GMT 48.193497 -6.583839 38,000 259 455 0
2021-04-25 09:45:55 GMT 48.194786 -6.573944 38,000 259 455 0
2021-04-25 09:45:52 GMT 48.195831 -6.565951 38,000 259 455 0
2021-04-25 09:45:47 GMT 48.197754 -6.551091 38,000 259 455 0
2021-04-25 09:45:44 GMT 48.198746 -6.543370 38,000 259 455 0
2021-04-25 09:45:38 GMT 48.201630 -6.521181 38,000 260 455 0
2021-04-25 09:45:34 GMT 48.203247 -6.508484 38,000 260 455 0
2021-04-25 09:45:28 GMT 48.205540 -6.490607 38,000 259 455 0
2021-04-25 09:45:26 GMT 48.206360 -6.484398 38,000 259 455 0
2021-04-25 09:45:23 GMT 48.207542 -6.475139 38,000 259 455 0
2021-04-25 09:45:18 GMT 48.209496 -6.460033 38,000 259 455 0
2021-04-25 09:45:15 GMT 48.210430 -6.452878 38,000 259 455 0
2021-04-25 09:45:13 GMT 48.211498 -6.444855 38,000 260 456 0
2021-04-25 09:45:10 GMT 48.212383 -6.437771 38,000 260 456 0
2021-04-25 09:45:07 GMT 48.213875 -6.426279 38,000 260 456 0
2021-04-25 09:45:04 GMT 48.214645 -6.420100 38,000 260 456 0
2021-04-25 09:45:01 GMT 48.216015 -6.409583 38,000 260 456 0
2021-04-25 09:44:58 GMT 48.217438 -6.398480 38,000 260 456 0
2021-04-25 09:44:55 GMT 48.218445 -6.390733 38,000 260 456 0
2021-04-25 09:44:51 GMT 48.220184 -6.376789 38,000 260 456 0
2021-04-25 09:44:47 GMT 48.221600 -6.365999 38,000 260 456 0
2021-04-25 09:44:45 GMT 48.222519 -6.358901 38,000 260 456 0
2021-04-25 09:44:41 GMT 48.223892 -6.348055 38,000 260 456 0
2021-04-25 09:44:38 GMT 48.225494 -6.335660 38,000 260 456 0
2021-04-25 09:44:35 GMT 48.226395 -6.328559 38,000 260 456 0
2021-04-25 09:44:31 GMT 48.227875 -6.316787 38,000 260 455 0
2021-04-25 09:44:27 GMT 48.229748 -6.302249 38,000 260 455 0
2021-04-25 09:44:24 GMT 48.230576 -6.295377 38,000 260 455 0
2021-04-25 09:44:21 GMT 48.231949 -6.284532 38,000 260 455 0
2021-04-25 09:44:18 GMT 48.233379 -6.273410 38,000 260 456 0
2021-04-25 09:44:15 GMT 48.234512 -6.264390 38,000 260 456 0
2021-04-25 09:44:11 GMT 48.235931 -6.253545 38,000 260 457 0
2021-04-25 09:44:08 GMT 48.237305 -6.242699 38,000 260 457 0
2021-04-25 09:44:05 GMT 48.238358 -6.234319 38,000 260 457 0
2021-04-25 09:44:01 GMT 48.239849 -6.222526 38,000 260 456 0
2021-04-25 09:43:58 GMT 48.242432 -6.202346 38,000 260 456 0
2021-04-25 09:43:55 GMT 48.242432 -6.202346 38,000 260 456 0
2021-04-25 09:43:50 GMT 48.244038 -6.189350 38,000 260 456 0
2021-04-25 09:43:47 GMT 48.245819 -6.175302 38,000 260 457 0
2021-04-25 09:43:41 GMT 48.247856 -6.159138 38,000 260 457 0
2021-04-25 09:43:38 GMT 48.249023 -6.149879 38,000 260 457 0
2021-04-25 09:43:35 GMT 48.250397 -6.138963 38,000 260 457 0
2021-04-25 09:43:31 GMT 48.251724 -6.128047 38,000 260 457 0
2021-04-25 09:43:28 GMT 48.252975 -6.118156 38,000 260 457 0
2021-04-25 09:43:24 GMT 48.254379 -6.106920 38,000 260 457 0
2021-04-25 09:43:21 GMT 48.256805 -6.087623 38,000 260 457 0
2021-04-25 09:43:18 GMT 48.256805 -6.087623 38,000 260 457 0
2021-04-25 09:43:16 GMT 48.257587 -6.081728 38,000 260 457 0
2021-04-25 09:43:13 GMT 48.258499 -6.074242 38,000 260 457 0
2021-04-25 09:43:08 GMT 48.260925 -6.054946 38,000 260 457 0
2021-04-25 09:43:02 GMT 48.262894 -6.039100 38,000 260 457 0
2021-04-25 09:42:58 GMT 48.264633 -6.025367 38,000 260 457 0
2021-04-25 09:42:53 GMT 48.266281 -6.011986 38,000 260 457 0
2021-04-25 09:42:49 GMT 48.267735 -6.000125 38,000 260 457 0
2021-04-25 09:42:46 GMT 48.269409 -5.986754 38,000 260 457 0
2021-04-25 09:42:43 GMT 48.270203 -5.980538 38,000 260 457 0
2021-04-25 09:42:38 GMT 48.272552 -5.961562 38,000 260 457 0
2021-04-25 09:42:33 GMT 48.274750 -5.944096 38,000 260 457 0
2021-04-25 09:42:30 GMT 48.275696 -5.936303 38,000 260 457 0
2021-04-25 09:42:27 GMT 48.276531 -5.929798 38,000 260 457 0
2021-04-25 09:42:23 GMT 48.278114 -5.917005 38,000 260 457 0
2021-04-25 09:42:20 GMT 48.279327 -5.907392 38,000 260 457 0
2021-04-25 09:42:17 GMT 48.280163 -5.900236 38,000 260 457 0
2021-04-25 09:42:13 GMT 48.281887 -5.886214 38,000 260 457 0
2021-04-25 09:42:10 GMT 48.282898 -5.878108 38,000 260 457 0
2021-04-25 09:42:07 GMT 48.284042 -5.868460 38,000 260 456 0
2021-04-25 09:42:03 GMT 48.285782 -5.854516 38,000 260 456 0
2021-04-25 09:41:57 GMT 48.287891 -5.837426 38,000 260 456 0
2021-04-25 09:41:55 GMT 48.288918 -5.829331 38,000 260 456 0
2021-04-25 09:41:50 GMT 48.290771 -5.814092 38,000 260 456 0
2021-04-25 09:41:47 GMT 48.291870 -5.805429 38,000 260 456 0
2021-04-25 09:41:44 GMT 48.292778 -5.797962 38,000 260 455 0
2021-04-25 09:41:40 GMT 48.294617 -5.782752 38,000 260 455 0
2021-04-25 09:41:37 GMT 48.295525 -5.775628 38,000 260 455 0
2021-04-25 09:41:35 GMT 48.296692 -5.766015 38,000 260 455 0
2021-04-25 09:41:32 GMT 48.297623 -5.758282 38,000 260 455 0
2021-04-25 09:41:27 GMT 48.299332 -5.744019 38,000 260 455 -64
2021-04-25 09:41:22 GMT 48.301670 -5.724527 38,000 260 454 0
2021-04-25 09:41:19 GMT 48.302418 -5.718601 38,000 260 454 0
2021-04-25 09:41:16 GMT 48.303268 -5.711482 38,000 260 454 0
2021-04-25 09:41:13 GMT 48.304604 -5.700386 38,000 260 454 0
2021-04-25 09:41:10 GMT 48.305862 -5.690123 38,000 260 454 0
2021-04-25 09:41:06 GMT 48.306976 -5.680847 38,000 260 454 0
2021-04-25 09:41:03 GMT 48.308304 -5.670072 38,000 260 454 0
2021-04-25 09:41:01 GMT 48.309036 -5.664156 38,000 260 454 0
2021-04-25 09:40:57 GMT 48.310608 -5.651165 38,000 260 453 0
2021-04-25 09:40:52 GMT 48.312611 -5.634541 38,000 260 453 0
2021-04-25 09:40:47 GMT 48.314529 -5.619084 38,000 260 453 0
2021-04-25 09:40:42 GMT 48.316452 -5.603027 38,000 260 453 0
2021-04-25 09:40:37 GMT 48.318195 -5.588788 38,000 260 453 0
2021-04-25 09:40:33 GMT 48.319427 -5.578308 38,000 260 452 0
2021-04-25 09:40:29 GMT 48.321083 -5.564792 38,000 260 452 0
2021-04-25 09:40:26 GMT 48.322083 -5.556124 38,000 260 452 0
2021-04-25 09:40:22 GMT 48.323959 -5.540771 38,000 260 452 0
2021-04-25 09:40:17 GMT 48.325691 -5.526268 38,000 260 452 0
2021-04-25 09:40:14 GMT 48.327087 -5.514558 38,000 260 452 0
2021-04-25 09:40:11 GMT 48.327785 -5.508704 38,000 260 451 0
2021-04-25 09:40:07 GMT 48.329269 -5.496404 38,000 260 451 0
2021-04-25 09:40:04 GMT 48.331604 -5.477046 38,000 260 451 0
2021-04-25 09:40:01 GMT 48.331604 -5.477046 38,000 260 451 0
2021-04-25 09:39:57 GMT 48.332977 -5.465346 38,000 260 451 0
2021-04-25 09:39:54 GMT 48.334255 -5.454856 38,000 260 451 0
2021-04-25 09:39:49 GMT 48.335934 -5.441051 38,000 260 451 0
2021-04-25 09:39:46 GMT 48.336819 -5.433390 38,000 260 451 0
2021-04-25 09:39:44 GMT 48.337608 -5.426885 38,000 260 450 0
2021-04-25 09:39:39 GMT 48.339661 -5.409710 38,000 260 450 0
2021-04-25 09:39:37 GMT 48.340401 -5.403539 38,000 260 450 0
2021-04-25 09:39:33 GMT 48.341892 -5.390962 38,000 260 450 0
2021-04-25 09:39:29 GMT 48.343288 -5.378964 38,000 261 450 0
2021-04-25 09:39:26 GMT 48.344360 -5.370002 38,000 260 450 0
2021-04-25 09:39:20 GMT 48.346546 -5.351571 38,000 260 449 0
2021-04-25 09:39:17 GMT 48.347763 -5.341116 38,000 260 449 0
2021-04-25 09:39:11 GMT 48.349960 -5.322735 38,000 261 449 0
2021-04-25 09:39:07 GMT 48.351482 -5.309866 38,000 260 449 0
2021-04-25 09:39:04 GMT 48.352367 -5.302493 38,000 260 449 0
2021-04-25 09:39:00 GMT 48.353764 -5.290495 38,000 260 449 0
2021-04-25 09:38:56 GMT 48.355179 -5.278860 38,000 260 449 0
2021-04-25 09:38:53 GMT 48.356136 -5.270619 38,000 261 449 0
2021-04-25 09:38:50 GMT 48.357422 -5.259845 38,000 261 449 0
2021-04-25 09:38:47 GMT 48.358521 -5.250338 38,000 261 449 0
2021-04-25 09:38:42 GMT 48.360279 -5.235347 38,000 261 449 0
2021-04-25 09:38:37 GMT 48.362236 -5.218434 38,000 261 449 0
2021-04-25 09:38:32 GMT 48.365959 -5.186559 38,000 261 449 0
2021-04-25 09:38:27 GMT 48.365959 -5.186559 38,000 261 449 0
2021-04-25 09:38:22 GMT 48.367588 -5.172754 38,000 261 449 0
2021-04-25 09:38:19 GMT 48.368408 -5.165335 38,000 261 449 0
2021-04-25 09:38:16 GMT 48.369507 -5.156180 38,000 261 449 0
2021-04-25 09:38:13 GMT 48.370789 -5.145123 38,000 261 449 0
2021-04-25 09:38:10 GMT 48.372025 -5.134348 38,000 261 449 0
2021-04-25 09:38:06 GMT 48.373032 -5.125756 38,000 261 449 0
2021-04-25 09:38:01 GMT 48.374817 -5.110474 38,000 261 449 0
2021-04-25 09:37:58 GMT 48.376060 -5.100041 38,000 261 449 0
2021-04-25 09:37:55 GMT 48.377014 -5.092022 38,000 261 449 0
2021-04-25 09:37:52 GMT 48.378479 -5.079487 38,000 261 449 0
2021-04-25 09:37:49 GMT 48.379227 -5.072720 38,000 261 449 0
2021-04-25 09:37:46 GMT 48.380344 -5.063179 38,000 261 449 0
2021-04-25 09:37:42 GMT 48.381599 -5.052410 38,000 261 449 -64
2021-04-25 09:37:39 GMT 48.382950 -5.040773 38,000 261 449 -64
2021-04-25 09:37:36 GMT 48.383835 -5.032822 38,000 261 449 0
2021-04-25 09:37:33 GMT 48.385231 -5.020824 38,000 261 449 0
2021-04-25 09:37:29 GMT 48.386444 -5.010399 38,000 261 449 0
2021-04-25 09:37:26 GMT 48.387543 -5.000892 38,000 261 449 0
2021-04-25 09:37:23 GMT 48.388550 -4.991948 38,000 261 449 0
2021-04-25 09:37:19 GMT 48.389748 -4.981505 38,000 261 449 0
2021-04-25 09:37:17 GMT 48.390839 -4.972299 38,000 261 449 0
2021-04-25 09:37:14 GMT 48.391888 -4.963074 38,000 261 449 0
2021-04-25 09:37:10 GMT 48.392990 -4.953566 38,000 261 449 0
2021-04-25 09:37:06 GMT 48.394455 -4.940679 38,000 261 449 64
2021-04-25 09:37:03 GMT 48.395382 -4.932644 38,000 261 449 0
2021-04-25 09:36:59 GMT 48.397156 -4.917297 38,000 261 449 0
2021-04-25 09:36:56 GMT 48.398220 -4.908070 38,000 261 449 64
2021-04-25 09:36:53 GMT 48.398964 -4.901637 38,000 261 449 64
2021-04-25 09:36:48 GMT 48.400635 -4.886944 38,000 261 449 0
2021-04-25 09:36:46 GMT 48.402271 -4.872798 38,000 261 449 0
2021-04-25 09:36:41 GMT 48.403481 -4.862028 38,000 261 449 0
2021-04-25 09:36:36 GMT 48.405075 -4.847576 38,000 261 449 0
2021-04-25 09:36:34 GMT 48.405670 -4.842369 38,000 261 449 0
2021-04-25 09:36:28 GMT 48.407867 -4.822998 38,000 261 449 0
2021-04-25 09:36:25 GMT 48.408928 -4.813746 38,000 261 448 0
2021-04-25 09:36:21 GMT 48.410324 -4.801170 38,000 261 448 64
2021-04-25 09:36:18 GMT 48.411163 -4.794124 38,000 261 448 0
2021-04-25 09:36:15 GMT 48.412327 -4.783679 38,000 261 448 0
2021-04-25 09:36:12 GMT 48.413223 -4.775743 38,000 261 449 0
2021-04-25 09:36:09 GMT 48.414745 -4.762501 38,000 261 448 0
2021-04-25 09:36:06 GMT 48.415512 -4.755460 38,000 261 449 0
2021-04-25 09:36:03 GMT 48.416382 -4.747784 38,000 261 448 0
2021-04-25 09:36:00 GMT 48.417820 -4.734891 38,000 261 448 0
2021-04-25 09:35:56 GMT 48.418900 -4.725741 38,000 261 448 0
2021-04-25 09:35:54 GMT 48.419449 -4.720796 38,000 261 448 0
2021-04-25 09:35:50 GMT 48.421078 -4.706413 38,000 261 448 0
2021-04-25 09:35:46 GMT 48.423450 -4.685524 38,000 261 448 0
2021-04-25 09:35:43 GMT 48.423450 -4.685524 38,000 261 448 0
2021-04-25 09:35:39 GMT 48.424801 -4.673598 38,000 261 448 0
2021-04-25 09:35:35 GMT 48.426453 -4.658907 38,000 261 448 0
2021-04-25 09:35:30 GMT 48.427780 -4.646935 38,000 261 449 -64
2021-04-25 09:35:26 GMT 48.429272 -4.633773 38,000 261 449 64
2021-04-25 09:35:23 GMT 48.430206 -4.625174 38,000 261 448 -128
2021-04-25 09:35:19 GMT 48.431625 -4.612568 38,025 261 448 -64
2021-04-25 09:35:16 GMT 48.432808 -4.601537 38,025 261 448 64
2021-04-25 09:35:13 GMT 48.433552 -4.595032 38,000 261 449 0
2021-04-25 09:35:10 GMT 48.434715 -4.584335 38,000 261 448 0
2021-04-25 09:35:08 GMT 48.435379 -4.578482 38,000 261 448 0
2021-04-25 09:35:05 GMT 48.436340 -4.570172 38,000 261 448 0
2021-04-25 09:35:03 GMT 48.437092 -4.563446 38,000 261 448 0
2021-04-25 09:34:59 GMT 48.438488 -4.550870 38,000 261 448 -64
2021-04-25 09:34:56 GMT 48.439697 -4.540100 38,000 261 447 0
2021-04-25 09:34:53 GMT 48.440552 -4.532142 38,000 261 447 64
2021-04-25 09:34:49 GMT 48.442017 -4.518902 38,000 261 448 0
2021-04-25 09:34:46 GMT 48.443069 -4.509395 38,000 261 448 0
2021-04-25 09:34:42 GMT 48.444214 -4.499324 38,000 261 448 0
2021-04-25 09:34:39 GMT 48.445404 -4.488549 38,000 261 447 -64
2021-04-25 09:34:36 GMT 48.446457 -4.479041 38,000 261 448 0
2021-04-25 09:34:33 GMT 48.447144 -4.472562 38,000 261 448 -64
2021-04-25 09:34:30 GMT 48.448498 -4.460305 38,000 261 448 -64
2021-04-25 09:34:26 GMT 48.449844 -4.447984 38,000 261 449 64
2021-04-25 09:34:24 GMT 48.450668 -4.440308 38,000 261 448 0
2021-04-25 09:34:21 GMT 48.451382 -4.433851 38,000 261 449 -64
2021-04-25 09:34:18 GMT 48.452637 -4.422842 38,000 261 448 -64
2021-04-25 09:34:15 GMT 48.453461 -4.415095 38,000 261 448 0
2021-04-25 09:34:11 GMT 48.454651 -4.404391 38,000 261 448 0
2021-04-25 09:34:07 GMT 48.456024 -4.391785 38,000 261 448 0
2021-04-25 09:34:05 GMT 48.456573 -4.386573 38,000 261 448 0
2021-04-25 09:34:02 GMT 48.458691 -4.367499 38,000 261 448 64
2021-04-25 09:33:59 GMT 48.458691 -4.367499 38,000 261 448 64
2021-04-25 09:33:57 GMT 48.459366 -4.361361 38,000 261 448 64
2021-04-25 09:33:55 GMT 48.460041 -4.355501 38,000 261 448 0
2021-04-25 09:33:53 GMT 48.460785 -4.348418 38,000 261 448 -64
2021-04-25 09:33:50 GMT 48.462833 -4.329987 38,000 261 448 -64
2021-04-25 09:33:47 GMT 48.462833 -4.329987 38,000 261 448 -64
2021-04-25 09:33:45 GMT 48.463440 -4.324176 38,000 261 448 0
2021-04-25 09:33:41 GMT 48.464951 -4.310655 38,000 261 448 -64
2021-04-25 09:33:38 GMT 48.465958 -4.301147 38,000 261 448 -64
2021-04-25 09:33:35 GMT 48.466827 -4.293119 38,000 261 448 -64
2021-04-25 09:33:33 GMT 48.467583 -4.286330 38,000 261 448 -64
2021-04-25 09:33:30 GMT 48.468842 -4.274668 38,000 261 448 64
2021-04-25 09:33:27 GMT 48.469528 -4.268188 38,000 261 448 64
2021-04-25 09:33:25 GMT 48.470123 -4.262695 38,000 261 448 64
2021-04-25 09:33:20 GMT 48.471863 -4.246638 38,000 261 448 -128
2021-04-25 09:33:17 GMT 48.472961 -4.236497 38,000 261 448 -128
2021-04-25 09:33:15 GMT 48.473541 -4.231254 38,000 261 448 0
2021-04-25 09:33:12 GMT 48.474884 -4.218961 38,000 261 448 0
2021-04-25 09:33:09 GMT 48.475544 -4.212823 38,000 261 448 0
2021-04-25 09:33:07 GMT 48.476055 -4.207908 38,000 261 448 0
2021-04-25 09:33:05 GMT 48.476894 -4.200247 38,000 261 448 0
2021-04-25 09:33:03 GMT 48.478848 -4.181743 38,000 261 448 0
2021-04-25 09:32:59 GMT 48.478848 -4.181743 38,000 261 448 -64
2021-04-25 09:32:57 GMT 48.479313 -4.177407 38,000 261 448 0
2021-04-25 09:32:55 GMT 48.480244 -4.168516 38,000 261 448 0
2021-04-25 09:32:52 GMT 48.481110 -4.160508 38,000 261 448 0
2021-04-25 09:32:49 GMT 48.482208 -4.150367 38,000 261 448 0
2021-04-25 09:32:45 GMT 48.483551 -4.138087 38,000 261 448 0
2021-04-25 09:32:43 GMT 48.484062 -4.133461 38,000 261 448 0
2021-04-25 09:32:40 GMT 48.485138 -4.123253 38,000 261 448 0
2021-04-25 09:32:37 GMT 48.485962 -4.115577 38,000 261 448 0
2021-04-25 09:32:35 GMT 48.486786 -4.107901 38,000 261 448 0
2021-04-25 09:32:30 GMT 48.489277 -4.084818 38,000 261 448 0
2021-04-25 09:32:27 GMT 48.489277 -4.084818 38,000 261 448 0
2021-04-25 09:32:25 GMT 48.489899 -4.079026 38,000 261 448 0
2021-04-25 09:32:23 GMT 48.490765 -4.071013 38,000 261 448 64
2021-04-25 09:32:20 GMT 48.491791 -4.061472 38,000 261 448 0
2021-04-25 09:32:17 GMT 48.492580 -4.053811 38,000 261 448 -64
2021-04-25 09:32:15 GMT 48.493561 -4.044589 38,000 261 448 -64
2021-04-25 09:32:13 GMT 48.494072 -4.040005 38,000 261 448 0
2021-04-25 09:32:10 GMT 48.494862 -4.032272 38,000 261 447 0
2021-04-25 09:32:07 GMT 48.496075 -4.020924 38,000 261 447 0
2021-04-25 09:32:04 GMT 48.497131 -4.011066 38,000 261 447 0
2021-04-25 09:32:00 GMT 48.498589 -3.997578 38,000 261 447 0
2021-04-25 09:31:57 GMT 48.499287 -3.990784 38,000 261 447 0
2021-04-25 09:31:55 GMT 48.501102 -3.973581 38,000 262 448 0
2021-04-25 09:31:52 GMT 48.501102 -3.973581 38,000 262 448 0
2021-04-25 09:31:49 GMT 48.502033 -3.964980 38,000 262 448 0
2021-04-25 09:31:47 GMT 48.503265 -3.953247 38,000 262 448 0
2021-04-25 09:31:45 GMT 48.503265 -3.953247 38,000 262 448 0
2021-04-25 09:31:43 GMT 48.504032 -3.945899 38,000 262 448 -64
2021-04-25 09:31:39 GMT 48.505150 -3.935129 38,000 261 448 0
2021-04-25 09:31:35 GMT 48.507339 -3.914513 38,000 262 448 0
2021-04-25 09:31:32 GMT 48.507339 -3.914513 38,000 262 447 0
2021-04-25 09:31:29 GMT 48.508255 -3.905569 38,000 262 448 64
2021-04-25 09:31:26 GMT 48.509247 -3.896388 38,000 262 447 64
2021-04-25 09:31:24 GMT 48.509857 -3.890498 38,000 262 448 -64
2021-04-25 09:31:21 GMT 48.510773 -3.881906 38,000 262 448 0
2021-04-25 09:31:18 GMT 48.511852 -3.871741 38,000 262 447 0
2021-04-25 09:31:14 GMT 48.513111 -3.859454 38,000 262 447 0
2021-04-25 09:31:11 GMT 48.514133 -3.849913 38,000 262 447 64
2021-04-25 09:31:08 GMT 48.515533 -3.836412 38,000 262 448 -64
2021-04-25 09:31:05 GMT 48.515991 -3.832116 38,000 262 448 0
2021-04-25 09:31:03 GMT 48.518051 -3.812397 38,000 262 448 0
2021-04-25 09:31:00 GMT 48.518051 -3.812397 38,000 262 447 0
2021-04-25 09:30:57 GMT 48.518509 -3.808101 38,000 262 448 0
2021-04-25 09:30:54 GMT 48.519562 -3.797960 38,000 262 448 0
2021-04-25 09:30:51 GMT 48.520569 -3.788452 38,000 262 447 0
2021-04-25 09:30:48 GMT 48.522236 -3.772141 38,000 262 447 0
2021-04-25 09:30:44 GMT 48.522701 -3.767805 38,000 262 447 0
2021-04-25 09:30:42 GMT 48.523453 -3.760775 38,000 262 447 64
2021-04-25 09:30:39 GMT 48.524284 -3.752771 38,000 262 448 64
2021-04-25 09:30:37 GMT 48.525055 -3.745352 38,000 262 448 64
2021-04-25 09:30:34 GMT 48.525913 -3.736725 38,000 262 448 0
2021-04-25 09:30:32 GMT 48.526749 -3.728732 38,000 262 447 0
2021-04-25 09:30:29 GMT 48.527481 -3.721971 38,000 262 447 0
2021-04-25 09:30:27 GMT 48.528076 -3.716125 38,000 262 447 0
2021-04-25 09:30:24 GMT 48.529266 -3.704787 38,000 262 448 0
2021-04-25 09:30:21 GMT 48.530182 -3.695843 38,000 262 448 0
2021-04-25 09:30:18 GMT 48.531464 -3.683871 38,000 262 448 0
2021-04-25 09:30:15 GMT 48.532242 -3.676124 38,000 262 448 0
2021-04-25 09:30:13 GMT 48.532700 -3.671828 38,000 262 448 0
2021-04-25 09:30:10 GMT 48.533688 -3.661989 38,000 262 448 0
2021-04-25 09:30:07 GMT 48.534576 -3.653377 38,000 262 448 0
2021-04-25 09:30:04 GMT 48.535782 -3.641679 38,000 262 448 64
2021-04-25 09:30:01 GMT 48.536499 -3.634573 38,000 262 448 -64
2021-04-25 09:29:58 GMT 48.537598 -3.623826 38,000 262 448 -64
2021-04-25 09:29:55 GMT 48.538437 -3.615803 38,000 262 448 0
2021-04-25 09:29:53 GMT 48.539062 -3.609643 38,000 262 448 -64
2021-04-25 09:29:50 GMT 48.539978 -3.600699 38,000 262 448 64
2021-04-25 09:29:47 GMT 48.540756 -3.593022 38,000 262 448 0
2021-04-25 09:29:44 GMT 48.541901 -3.582247 38,000 262 448 0
2021-04-25 09:29:41 GMT 48.542950 -3.571785 38,000 262 448 -64
2021-04-25 09:29:38 GMT 48.543915 -3.562528 38,000 262 448 -64
2021-04-25 09:29:35 GMT 48.544811 -3.553571 38,000 262 448 0
2021-04-25 09:29:31 GMT 48.546394 -3.538176 38,000 262 448 0
2021-04-25 09:29:28 GMT 48.546982 -3.532316 38,000 262 448 64
2021-04-25 09:29:24 GMT 48.548218 -3.520343 38,000 262 448 64
2021-04-25 09:29:22 GMT 48.549004 -3.512300 38,000 262 448 0
2021-04-25 09:29:19 GMT 48.549980 -3.502759 38,000 262 448 0
2021-04-25 09:29:16 GMT 48.550865 -3.494447 38,000 262 448 0
2021-04-25 09:29:13 GMT 48.551937 -3.483606 38,000 262 448 -64
2021-04-25 09:29:09 GMT 48.553333 -3.469728 38,000 262 448 0
2021-04-25 09:29:07 GMT 48.553333 -3.469728 38,000 262 448 0
2021-04-25 09:29:04 GMT 48.554443 -3.458651 38,000 262 448 0
2021-04-25 09:29:02 GMT 48.554901 -3.454003 38,000 262 448 0
2021-04-25 09:28:59 GMT 48.556000 -3.443228 38,000 262 448 0
2021-04-25 09:28:57 GMT 48.556503 -3.438298 38,000 262 448 0
2021-04-25 09:28:54 GMT 48.557476 -3.428457 38,000 262 448 0
2021-04-25 09:28:52 GMT 48.558151 -3.421678 38,000 262 447 0
2021-04-25 09:28:49 GMT 48.559204 -3.411537 38,000 262 447 0
2021-04-25 09:28:47 GMT 48.559803 -3.405689 38,000 262 447 0
2021-04-25 09:28:45 GMT 48.560394 -3.399564 38,000 262 447 0
2021-04-25 09:28:43 GMT 48.561245 -3.391234 38,000 262 447 0
2021-04-25 09:28:40 GMT 48.561722 -3.386324 38,000 262 447 0
2021-04-25 09:28:37 GMT 48.562775 -3.375901 38,000 262 447 -64
2021-04-25 09:28:34 GMT 48.563808 -3.365719 38,000 262 446 -64
2021-04-25 09:28:32 GMT 48.564331 -3.360549 38,000 262 446 0
2021-04-25 09:28:29 GMT 48.565109 -3.352565 38,000 262 446 64
2021-04-25 09:28:27 GMT 48.565853 -3.345192 38,000 262 446 0
2021-04-25 09:28:24 GMT 48.566879 -3.335073 38,000 262 446 -64
2021-04-25 09:28:21 GMT 48.567532 -3.328641 38,000 262 446 0
2021-04-25 09:28:18 GMT 48.568726 -3.316956 38,000 262 446 0
2021-04-25 09:28:16 GMT 48.569183 -3.312026 38,000 262 446 0
2021-04-25 09:28:13 GMT 48.570282 -3.301039 38,000 262 444 -64
2021-04-25 09:28:10 GMT 48.571198 -3.291814 38,000 262 445 0
2021-04-25 09:28:08 GMT 48.572231 -3.281370 38,000 262 445 0
2021-04-25 09:28:06 GMT 48.572231 -3.281370 38,000 262 444 0
2021-04-25 09:28:03 GMT 48.573257 -3.270968 38,000 262 444 0
2021-04-25 09:28:00 GMT 48.574188 -3.261783 38,000 262 444 0
2021-04-25 09:27:57 GMT 48.575089 -3.252587 38,000 262 444 64
2021-04-25 09:27:54 GMT 48.576004 -3.243080 38,000 262 444 0
2021-04-25 09:27:50 GMT 48.577286 -3.230262 38,000 262 444 -64
2021-04-25 09:27:47 GMT 48.577927 -3.224135 38,000 262 444 0
2021-04-25 09:27:45 GMT 48.578751 -3.215525 38,000 262 444 64
2021-04-25 09:27:43 GMT 48.579346 -3.209416 38,000 262 444 0
2021-04-25 09:27:40 GMT 48.580261 -3.200261 38,000 262 444 0
2021-04-25 09:27:36 GMT 48.581451 -3.188289 38,000 262 444 0
2021-04-25 09:27:33 GMT 48.582287 -3.179675 38,000 262 444 -64
2021-04-25 09:27:31 GMT 48.582870 -3.173852 38,000 262 444 -64
2021-04-25 09:27:27 GMT 48.583965 -3.162834 38,000 262 444 0
2021-04-25 09:27:25 GMT 48.584747 -3.154907 38,000 262 444 0
2021-04-25 09:27:23 GMT 48.585453 -3.147511 38,000 262 444 0
2021-04-25 09:27:20 GMT 48.586430 -3.137392 38,000 262 445 0
2021-04-25 09:27:16 GMT 48.587502 -3.126695 38,000 262 444 0
2021-04-25 09:27:13 GMT 48.588341 -3.118166 38,000 262 445 0
2021-04-25 09:27:10 GMT 48.589142 -3.110469 38,000 262 445 0
2021-04-25 09:27:07 GMT 48.591202 -3.089694 38,000 262 444 0
2021-04-25 09:27:04 GMT 48.592209 -3.079271 38,000 262 444 -64
2021-04-25 09:27:00 GMT 48.592209 -3.079271 38,000 262 444 64
2021-04-25 09:26:57 GMT 48.593124 -3.069763 38,000 262 444 0
2021-04-25 09:26:55 GMT 48.594254 -3.058102 38,000 262 444 0
2021-04-25 09:26:53 GMT 48.594254 -3.058102 38,000 262 444 0
2021-04-25 09:26:50 GMT 48.595230 -3.047983 38,000 262 444 0
2021-04-25 09:26:47 GMT 48.596146 -3.038776 38,000 262 444 -64
2021-04-25 09:26:44 GMT 48.597153 -3.028071 38,000 262 444 0
2021-04-25 09:26:41 GMT 48.597977 -3.019761 38,000 262 444 0
2021-04-25 09:26:38 GMT 48.598862 -3.010615 38,000 262 443 0
2021-04-25 09:26:35 GMT 48.599945 -2.999549 38,000 262 443 0
2021-04-25 09:26:33 GMT 48.600586 -2.992859 38,000 262 443 0
2021-04-25 09:26:30 GMT 48.601181 -2.987014 38,000 262 443 0
2021-04-25 09:26:27 GMT 48.602261 -2.975994 38,000 262 443 0
2021-04-25 09:26:24 GMT 48.602959 -2.968694 38,000 262 443 0
2021-04-25 09:26:22 GMT 48.603561 -2.962576 38,000 262 443 0
2021-04-25 09:26:19 GMT 48.604774 -2.950335 38,000 262 443 64
2021-04-25 09:26:16 GMT 48.605656 -2.940867 38,000 262 443 0
2021-04-25 09:26:13 GMT 48.606216 -2.935040 38,000 262 443 0
2021-04-25 09:26:10 GMT 48.607101 -2.925905 38,000 262 443 0
2021-04-25 09:26:07 GMT 48.608047 -2.916095 38,000 262 443 -64
2021-04-25 09:26:04 GMT 48.608826 -2.907856 38,000 262 443 -64
2021-04-25 09:26:02 GMT 48.609474 -2.900824 38,000 262 442 0
2021-04-25 09:25:59 GMT 48.610291 -2.892926 38,000 262 442 0
2021-04-25 09:25:55 GMT 48.612221 -2.873069 38,000 262 442 0
2021-04-25 09:25:53 GMT 48.612221 -2.873069 38,000 262 442 0
2021-04-25 09:25:50 GMT 48.613060 -2.864179 38,000 262 442 0
2021-04-25 09:25:47 GMT 48.614128 -2.852904 38,000 262 442 -64
2021-04-25 09:25:44 GMT 48.614822 -2.845600 38,000 262 442 0
2021-04-25 09:25:42 GMT 48.615463 -2.839191 38,000 262 442 64
2021-04-25 09:25:39 GMT 48.616241 -2.830670 38,000 262 442 64
2021-04-25 09:25:35 GMT 48.617569 -2.816655 38,000 262 442 0
2021-04-25 09:25:30 GMT 48.619019 -2.801369 38,000 262 442 0
2021-04-25 09:25:27 GMT 48.620461 -2.785829 38,000 262 441 0
2021-04-25 09:25:24 GMT 48.620461 -2.785829 38,000 262 441 0
2021-04-25 09:25:22 GMT 48.620972 -2.780625 38,000 262 441 -64
2021-04-25 09:25:19 GMT 48.622009 -2.769681 38,000 262 441 64
2021-04-25 09:25:16 GMT 48.623070 -2.758725 38,000 262 441 64
2021-04-25 09:25:13 GMT 48.623611 -2.752920 38,000 262 441 64
2021-04-25 09:25:11 GMT 48.625301 -2.735017 38,000 262 441 -64
2021-04-25 09:25:08 GMT 48.625301 -2.735017 38,000 262 441 -64
2021-04-25 09:25:05 GMT 48.626141 -2.726127 38,000 262 441 0
2021-04-25 09:25:02 GMT 48.626770 -2.719468 38,000 262 441 0
2021-04-25 09:24:59 GMT 48.627777 -2.709116 38,000 262 440 64
2021-04-25 09:24:56 GMT 48.628609 -2.700035 38,000 262 440 64
2021-04-25 09:24:53 GMT 48.629379 -2.692073 38,000 262 440 -64
2021-04-25 09:24:49 GMT 48.630707 -2.677847 38,000 262 440 0
2021-04-25 09:24:46 GMT 48.631588 -2.668738 38,000 263 440 0
2021-04-25 09:24:43 GMT 48.632309 -2.660804 38,000 263 440 0
2021-04-25 09:24:41 GMT 48.632889 -2.654427 38,000 262 439 64
2021-04-25 09:24:38 GMT 48.633865 -2.644395 38,000 262 440 64
2021-04-25 09:24:35 GMT 48.635513 -2.626507 38,000 262 440 64
2021-04-25 09:24:32 GMT 48.635513 -2.626507 38,000 262 439 -64
2021-04-25 09:24:28 GMT 48.636703 -2.613760 38,000 262 439 64
2021-04-25 09:24:25 GMT 48.637405 -2.606795 38,000 262 439 0
2021-04-25 09:24:22 GMT 48.638306 -2.597140 38,000 262 438 -64
2021-04-25 09:24:19 GMT 48.639404 -2.585308 38,000 262 438 0
2021-04-25 09:24:16 GMT 48.640915 -2.569604 38,000 262 438 -64
2021-04-25 09:24:13 GMT 48.640915 -2.569604 38,000 262 438 0
2021-04-25 09:24:10 GMT 48.641602 -2.561998 38,000 262 438 -64
2021-04-25 09:24:07 GMT 48.642479 -2.552659 38,000 263 438 64
2021-04-25 09:24:05 GMT 48.642883 -2.547772 38,000 262 438 0
2021-04-25 09:24:03 GMT 48.643642 -2.539649 38,000 263 438 64
2021-04-25 09:24:01 GMT 48.644249 -2.533288 38,000 262 437 64
2021-04-25 09:23:58 GMT 48.645126 -2.523616 38,000 262 437 0
2021-04-25 09:23:55 GMT 48.646252 -2.511532 38,000 262 437 -64
2021-04-25 09:23:49 GMT 48.647926 -2.493752 38,000 262 437 0
2021-04-25 09:23:46 GMT 48.649231 -2.479874 38,000 263 437 64
2021-04-25 09:23:43 GMT 48.649742 -2.474164 38,000 263 437 64
2021-04-25 09:23:38 GMT 48.651604 -2.453637 38,000 263 437 -64
2021-04-25 09:23:35 GMT 48.651604 -2.453637 38,000 263 437 -64
2021-04-25 09:23:32 GMT 48.652405 -2.445162 38,000 263 436 0
2021-04-25 09:23:28 GMT 48.653515 -2.433110 38,000 263 436 0
2021-04-25 09:23:25 GMT 48.654163 -2.425593 38,000 263 436 0
2021-04-25 09:23:23 GMT 48.654831 -2.418682 38,000 263 436 0
2021-04-25 09:23:18 GMT 48.656399 -2.401525 38,000 263 436 0
2021-04-25 09:23:16 GMT 48.656773 -2.397332 38,000 263 435 0
2021-04-25 09:23:13 GMT 48.657658 -2.388009 38,000 262 436 0
2021-04-25 09:23:11 GMT 48.658215 -2.381648 38,000 263 435 0
2021-04-25 09:23:08 GMT 48.659729 -2.365441 38,000 263 435 0
2021-04-25 09:23:05 GMT 48.659729 -2.365441 38,000 263 435 0
2021-04-25 09:23:03 GMT 48.660355 -2.358230 38,000 263 435 0
2021-04-25 09:23:01 GMT 48.660915 -2.352231 38,000 263 435 0
2021-04-25 09:22:58 GMT 48.661892 -2.341678 38,000 263 434 0
2021-04-25 09:22:55 GMT 48.662430 -2.335722 38,000 263 435 0
2021-04-25 09:22:53 GMT 48.663101 -2.328162 38,000 263 435 0
2021-04-25 09:22:51 GMT 48.663528 -2.323397 38,000 263 435 -64
2021-04-25 09:22:49 GMT 48.664360 -2.314357 38,000 263 434 0
2021-04-25 09:22:46 GMT 48.665012 -2.306840 38,000 263 435 128
2021-04-25 09:22:43 GMT 48.665897 -2.296938 38,000 263 434 -64
2021-04-25 09:22:39 GMT 48.667053 -2.284311 38,000 263 434 0
2021-04-25 09:22:36 GMT 48.667709 -2.276844 38,000 263 434 0
2021-04-25 09:22:33 GMT 48.668610 -2.267268 38,000 263 434 0
2021-04-25 09:22:30 GMT 48.669296 -2.259733 38,000 263 434 0
2021-04-25 09:22:26 GMT 48.670506 -2.246560 38,000 263 434 0
2021-04-25 09:22:23 GMT 48.671249 -2.237886 38,000 263 434 0
2021-04-25 09:22:20 GMT 48.672089 -2.228634 38,000 263 433 0
2021-04-25 09:22:16 GMT 48.673157 -2.216925 38,000 263 432 0
2021-04-25 09:22:13 GMT 48.674042 -2.207023 38,000 263 432 0
2021-04-25 09:22:11 GMT 48.674561 -2.201069 38,000 263 432 0
2021-04-25 09:22:07 GMT 48.675293 -2.193322 38,000 263 432 0
2021-04-25 09:22:05 GMT 48.675934 -2.185857 38,000 263 432 0
2021-04-25 09:22:03 GMT 48.676804 -2.176561 38,000 263 432 0
2021-04-25 09:22:01 GMT 48.677067 -2.173269 38,000 263 432 0
2021-04-25 09:21:58 GMT 48.677765 -2.165174 38,000 263 432 64
2021-04-25 09:21:55 GMT 48.678726 -2.154447 38,000 263 432 0
2021-04-25 09:21:52 GMT 48.679367 -2.147545 38,000 263 433 64
2021-04-25 09:21:49 GMT 48.680233 -2.137708 38,000 263 433 64
2021-04-25 09:21:46 GMT 48.681492 -2.123903 38,000 263 433 0
2021-04-25 09:21:43 GMT 48.682068 -2.117685 38,000 263 433 0
2021-04-25 09:21:41 GMT 48.682480 -2.112896 38,000 263 432 0
2021-04-25 09:21:38 GMT 48.683167 -2.105431 38,000 263 432 0
2021-04-25 09:21:35 GMT 48.684036 -2.095501 38,000 263 432 0
2021-04-25 09:21:32 GMT 48.684841 -2.086535 38,000 263 432 64
2021-04-25 09:21:29 GMT 48.685684 -2.076698 38,000 263 432 0
2021-04-25 09:21:26 GMT 48.686554 -2.066838 38,000 263 432 0
2021-04-25 09:21:24 GMT 48.686935 -2.062322 38,000 263 432 0
2021-04-25 09:21:21 GMT 48.687866 -2.052203 38,000 263 432 0
2021-04-25 09:21:18 GMT 48.688660 -2.043175 38,000 263 432 0
2021-04-25 09:21:15 GMT 48.689590 -2.032760 38,000 263 432 0
2021-04-25 09:21:12 GMT 48.690147 -2.026472 38,000 263 432 -64
2021-04-25 09:21:10 GMT 48.690895 -2.017798 38,000 263 432 64
2021-04-25 09:21:07 GMT 48.691956 -2.005850 38,000 263 432 64
2021-04-25 09:21:05 GMT 48.691956 -2.005850 38,000 263 432 64
2021-04-25 09:21:02 GMT 48.692780 -1.996554 38,000 263 432 0
2021-04-25 09:21:00 GMT 48.693237 -1.991765 38,000 263 432 0
2021-04-25 09:20:57 GMT 48.693966 -1.983394 38,000 263 432 0
2021-04-25 09:20:55 GMT 48.694794 -1.973877 38,000 263 432 64
2021-04-25 09:20:52 GMT 48.695389 -1.966694 38,000 263 432 0
2021-04-25 09:20:50 GMT 48.695938 -1.960355 38,000 263 432 -64
2021-04-25 09:20:48 GMT 48.696342 -1.955928 38,000 263 432 -128
2021-04-25 09:20:45 GMT 48.697403 -1.943946 38,000 263 432 0
2021-04-25 09:20:42 GMT 48.698063 -1.936123 38,000 263 432 64
2021-04-25 09:20:40 GMT 48.698502 -1.931340 38,000 263 432 128
2021-04-25 09:20:38 GMT 48.699135 -1.923908 38,000 263 432 64
2021-04-25 09:20:34 GMT 48.700157 -1.912199 38,000 263 432 0
2021-04-25 09:20:31 GMT 48.701138 -1.901141 38,000 263 432 -64
2021-04-25 09:20:27 GMT 48.702026 -1.890705 38,000 263 432 0
2021-04-25 09:20:25 GMT 48.702625 -1.883794 38,000 263 432 -64
2021-04-25 09:20:22 GMT 48.703217 -1.877254 38,000 263 432 0
2021-04-25 09:20:20 GMT 48.703697 -1.871507 38,000 263 432 0
2021-04-25 09:20:18 GMT 48.704224 -1.864929 38,000 263 432 0
2021-04-25 09:20:15 GMT 48.704956 -1.856549 38,000 263 432 0
2021-04-25 09:20:12 GMT 48.705791 -1.847004 38,000 263 432 128
2021-04-25 09:20:10 GMT 48.706284 -1.841618 38,000 263 432 64
2021-04-25 09:20:07 GMT 48.707047 -1.832910 38,000 263 432 64
2021-04-25 09:20:05 GMT 48.707703 -1.825139 38,000 263 432 -128
2021-04-25 09:20:02 GMT 48.708351 -1.817659 38,000 263 432 0
2021-04-25 09:20:00 GMT 48.708912 -1.811371 38,000 263 432 0
2021-04-25 09:19:58 GMT 48.709515 -1.804504 38,000 263 432 0
2021-04-25 09:19:55 GMT 48.710266 -1.795490 38,000 263 432 64
2021-04-25 09:19:52 GMT 48.710999 -1.787109 38,000 263 432 0
2021-04-25 09:19:50 GMT 48.712280 -1.772743 38,000 263 433 0
2021-04-25 09:19:47 GMT 48.712280 -1.772743 38,000 263 433 0
2021-04-25 09:19:45 GMT 48.713150 -1.762813 38,000 263 433 -64
2021-04-25 09:19:42 GMT 48.713745 -1.755911 38,000 263 433 0
2021-04-25 09:19:40 GMT 48.714706 -1.744573 38,000 263 433 0
2021-04-25 09:19:38 GMT 48.714706 -1.744573 38,000 263 433 64
2021-04-25 09:19:35 GMT 48.715668 -1.733445 38,000 263 433 0
2021-04-25 09:19:32 GMT 48.716267 -1.726227 38,000 263 433 0
2021-04-25 09:19:30 GMT 48.716766 -1.720558 38,000 263 433 0
2021-04-25 09:19:27 GMT 48.717499 -1.711825 38,000 263 433 0
2021-04-25 09:19:24 GMT 48.718361 -1.701652 38,000 263 433 0
2021-04-25 09:19:21 GMT 48.719196 -1.691750 38,000 263 433 0
2021-04-25 09:19:18 GMT 48.719803 -1.684233 38,000 263 433 0
2021-04-25 09:19:15 GMT 48.720547 -1.675487 38,000 263 433 0
2021-04-25 09:19:12 GMT 48.721436 -1.665344 38,000 263 433 0
2021-04-25 09:19:10 GMT 48.721806 -1.660815 38,000 263 434 64
2021-04-25 09:19:07 GMT 48.722878 -1.648455 38,000 263 434 64
2021-04-25 09:19:04 GMT 48.723907 -1.636470 38,000 263 434 64
2021-04-25 09:19:02 GMT 48.723907 -1.636470 38,000 263 434 0
2021-04-25 09:19:00 GMT 48.724411 -1.630132 38,000 263 435 -64
2021-04-25 09:18:57 GMT 48.725052 -1.622596 38,000 263 435 64
2021-04-25 09:18:54 GMT 48.726059 -1.610835 38,000 263 435 128
2021-04-25 09:18:51 GMT 48.726654 -1.603581 38,000 263 435 0
2021-04-25 09:18:49 GMT 48.727856 -1.589476 38,000 263 435 64
2021-04-25 09:18:46 GMT 48.727856 -1.589476 37,975 263 435 64
2021-04-25 09:18:44 GMT 48.728485 -1.581890 38,000 263 435 -64
2021-04-25 09:18:42 GMT 48.729126 -1.574355 38,000 263 436 64
2021-04-25 09:18:38 GMT 48.730091 -1.562877 38,000 263 435 -64

Making use of Plane Finder data

You are free to use the raw flight data, aircraft information and images provided in this report for your own purposes provided the data is correctly attributed to Plane Finder. We ask that you please credit Plane Finder and link to planefinder.net in close proximity to the content.

Optionally one of the following logos (no smaller then 150x24px) can be used and must link to planefinder.net

Embedding the Plane Finder map

You are welcome to embed the Plane Finder playback map on your website to offer visitors a more interactive experience. We suggest using the following HTML code:

<iframe src="//planefinder.net/data/report/AF498-F-GZCG-7700-squawk-2021-04-25/map" width="800" height="600" seamless="seamless"></iframe>

Where our data comes from

Plane Finder has a global network of data feeds and antenna radars that receive data broadcast directly from aircraft. The primary technologies used are ADS-B and MLAT. We also show feeds from the FAA and a FLARM glider feed.

Click here to find out more about the Plane Finder network.

How we collect our data